CheckWX is a tool to help pilots better visualize weather data.  It is not intended as a substitute for an official pre-flight weather briefing.

06:57:10 UTC

HTTB TAF
Tabora Airport
Tabora, Tanzania
HTTB 272300Z 2800/2824 00000KT 9999 FEW016

May-28@
00:00 UTC

May-28 @ 00:00 UTC

May-29@
00:00 UTC

May-29 @ 00:00 UTC

TAF HTTB 272300Z 2800/2824 00000KT 9999 FEW016
Cloud Levels
  • Few at 1,600' AGL